createdAt,value
2022-09-22T00:00:00.210Z,10.40
2022-09-22T00:02:45.757Z,10.40
2022-09-22T00:05:31.206Z,10.30
2022-09-22T00:08:17.667Z,10.80
2022-09-22T00:11:16.784Z,11.60
2022-09-22T00:14:03.232Z,10.30
2022-09-22T00:16:54.594Z,10.20
2022-09-22T00:19:39.978Z,10.20
2022-09-22T00:22:26.011Z,10.20
2022-09-22T00:25:11.180Z,10.30
2022-09-22T00:27:56.680Z,10.40
2022-09-22T00:30:42.954Z,10.30
2022-09-22T00:33:28.347Z,10.30
2022-09-22T00:36:15.444Z,10.40
2022-09-22T00:39:01.094Z,10.40
2022-09-22T00:41:49.526Z,11.20
2022-09-22T00:44:44.751Z,10.20
2022-09-22T00:47:33.143Z,10.30
2022-09-22T00:50:23.139Z,10.30
2022-09-22T00:53:10.785Z,10.30
2022-09-22T00:56:01.459Z,10.10
2022-09-22T00:58:57.571Z,11.20
2022-09-22T01:01:42.941Z,9.70
2022-09-22T01:04:29.790Z,9.60
2022-09-22T01:07:16.006Z,9.60
2022-09-22T01:10:01.384Z,9.70
2022-09-22T01:12:58.629Z,9.70
2022-09-22T01:16:08.915Z,9.70
2022-09-22T01:19:06.597Z,9.50
2022-09-22T01:22:32.513Z,9.50
2022-09-22T01:25:35.895Z,9.40
2022-09-22T01:28:20.917Z,9.40
2022-09-22T01:31:29.363Z,9.40
2022-09-22T01:34:31.455Z,9.40
2022-09-22T01:37:25.291Z,9.30
2022-09-22T01:40:31.232Z,9.30
2022-09-22T01:43:29.021Z,9.30
2022-09-22T01:46:35.387Z,9.30
2022-09-22T01:49:22.962Z,9.40
2022-09-22T01:52:13.642Z,9.40
2022-09-22T01:55:23.748Z,9.50
2022-09-22T01:58:19.309Z,9.60
2022-09-22T02:01:15.718Z,10.30
2022-09-22T02:04:15.673Z,9.70
2022-09-22T02:07:15.726Z,9.70
2022-09-22T02:10:06.176Z,9.70
2022-09-22T02:12:52.136Z,9.70
2022-09-22T02:15:56.351Z,9.60
2022-09-22T02:18:50.744Z,9.50
2022-09-22T02:21:37.394Z,9.40
2022-09-22T02:24:49.038Z,9.40
2022-09-22T02:27:36.822Z,9.40
2022-09-22T02:30:23.763Z,9.40
2022-09-22T02:33:10.504Z,9.50
2022-09-22T02:36:10.170Z,9.40
2022-09-22T02:39:07.051Z,9.30
2022-09-22T02:42:01.912Z,9.20
2022-09-22T02:44:56.283Z,9.10
2022-09-22T02:47:57.370Z,9.00
2022-09-22T02:50:43.528Z,8.80
2022-09-22T02:53:28.818Z,8.60
2022-09-22T02:56:14.517Z,8.50
2022-09-22T02:59:00.116Z,8.40
2022-09-22T03:01:45.914Z,8.40
2022-09-22T03:04:32.301Z,8.40
2022-09-22T03:07:18.922Z,8.50
2022-09-22T03:10:05.127Z,8.40
2022-09-22T03:13:15.097Z,8.30
2022-09-22T03:15:56.342Z,8.50
2022-09-22T03:18:41.972Z,8.40
2022-09-22T03:21:27.679Z,8.40
2022-09-22T03:24:14.349Z,8.30
2022-09-22T03:27:00.114Z,8.40
2022-09-22T03:29:45.709Z,8.40
2022-09-22T03:32:31.531Z,8.30
2022-09-22T03:35:17.037Z,8.20
2022-09-22T03:38:02.538Z,8.20
2022-09-22T03:40:52.767Z,8.20
2022-09-22T03:43:38.147Z,8.10
2022-09-22T03:46:24.923Z,8.10
2022-09-22T03:49:11.044Z,8.00
2022-09-22T03:51:56.889Z,8.00
2022-09-22T03:54:42.213Z,7.90
2022-09-22T03:57:27.733Z,7.90
2022-09-22T04:00:14.100Z,7.80
2022-09-22T04:02:59.245Z,7.80
2022-09-22T04:05:51.503Z,7.80
2022-09-22T04:08:37.146Z,7.90
2022-09-22T04:11:24.339Z,7.90
2022-09-22T04:14:10.177Z,8.00
2022-09-22T04:16:56.718Z,8.00
2022-09-22T04:19:42.268Z,7.90
2022-09-22T04:22:28.833Z,7.80
2022-09-22T04:25:14.371Z,7.70
2022-09-22T04:28:04.819Z,7.60
2022-09-22T04:30:51.103Z,7.60
2022-09-22T04:33:37.034Z,7.60
2022-09-22T04:36:22.847Z,7.70
2022-09-22T04:39:08.527Z,7.70
2022-09-22T04:41:54.802Z,7.60
2022-09-22T04:44:40.283Z,7.70
2022-09-22T04:47:25.965Z,7.70
2022-09-22T04:50:11.147Z,7.60
2022-09-22T04:52:57.453Z,7.60
2022-09-22T04:55:42.835Z,8.00
2022-09-22T04:58:28.357Z,7.60
2022-09-22T05:01:13.996Z,7.50
2022-09-22T05:03:59.333Z,7.50
2022-09-22T05:06:44.794Z,7.40
2022-09-22T05:09:30.245Z,7.40
2022-09-22T05:12:15.895Z,7.30
2022-09-22T05:15:01.311Z,7.30
2022-09-22T05:17:55.187Z,7.20
2022-09-22T05:20:40.902Z,7.10
2022-09-22T05:23:26.212Z,7.00
2022-09-22T05:26:12.047Z,7.00
2022-09-22T05:29:00.253Z,7.00
2022-09-22T05:31:48.516Z,6.90
2022-09-22T05:34:33.884Z,7.00
2022-09-22T05:37:20.620Z,6.90
2022-09-22T05:40:07.141Z,6.90
2022-09-22T05:42:54.293Z,6.80
2022-09-22T05:45:40.013Z,6.80
2022-09-22T05:48:30.897Z,6.90
2022-09-22T05:51:16.664Z,6.90
2022-09-22T05:54:02.721Z,7.20
2022-09-22T05:56:48.227Z,7.40
2022-09-22T05:59:33.709Z,7.50
2022-09-22T06:02:26.162Z,7.70
2022-09-22T06:05:13.094Z,7.80
2022-09-22T06:08:03.913Z,8.40
2022-09-22T06:10:51.216Z,8.10
2022-09-22T06:13:36.755Z,8.30
2022-09-22T06:16:22.340Z,8.50
2022-09-22T06:19:07.758Z,8.50
2022-09-22T06:21:53.441Z,8.60
2022-09-22T06:24:38.812Z,8.80
2022-09-22T06:27:24.471Z,8.90
2022-09-22T06:30:11.279Z,9.50
2022-09-22T06:32:57.930Z,9.10
2022-09-22T06:35:45.482Z,9.20
2022-09-22T06:38:31.950Z,9.40
2022-09-22T06:41:17.247Z,9.40
2022-09-22T06:44:03.235Z,9.40
2022-09-22T06:46:48.591Z,9.40
2022-09-22T06:49:34.412Z,9.40
2022-09-22T06:52:20.839Z,9.30
2022-09-22T06:55:06.820Z,9.50
2022-09-22T06:57:52.482Z,9.50
2022-09-22T07:00:38.305Z,9.50
2022-09-22T07:03:25.476Z,9.50
2022-09-22T07:06:10.963Z,10.10
2022-09-22T07:08:56.451Z,9.90
2022-09-22T07:11:42.086Z,9.90
2022-09-22T07:14:28.263Z,9.80
2022-09-22T07:17:13.678Z,9.80
2022-09-22T07:19:59.389Z,9.80
2022-09-22T07:22:44.815Z,9.90
2022-09-22T07:25:35.783Z,10.50
2022-09-22T07:28:21.678Z,10.10
2022-09-22T07:31:13.207Z,10.20
2022-09-22T07:34:01.889Z,10.20
2022-09-22T07:36:48.976Z,10.30
2022-09-22T07:39:34.355Z,10.50
2022-09-22T07:42:20.036Z,10.70
2022-09-22T07:45:15.358Z,10.70
2022-09-22T07:48:19.405Z,10.80
2022-09-22T07:51:12.895Z,11.00
2022-09-22T07:54:10.035Z,11.10
2022-09-22T07:56:58.362Z,11.20
2022-09-22T07:59:45.078Z,11.40
2022-09-22T08:02:31.103Z,11.50
2022-09-22T08:05:16.447Z,11.70
2022-09-22T08:08:03.634Z,11.80
2022-09-22T08:10:49.054Z,11.90
2022-09-22T08:13:35.095Z,12.10
2022-09-22T08:16:22.933Z,12.30
2022-09-22T08:19:12.489Z,12.20
2022-09-22T08:21:58.609Z,12.20
2022-09-22T08:24:44.931Z,12.40
2022-09-22T08:27:30.616Z,12.60
2022-09-22T08:30:17.100Z,12.80
2022-09-22T08:33:02.483Z,13.20
2022-09-22T08:35:59.360Z,13.30
2022-09-22T08:38:49.211Z,13.40
2022-09-22T08:41:42.987Z,13.60
2022-09-22T08:44:58.033Z,13.80
2022-09-22T08:48:09.913Z,14.00
2022-09-22T08:51:51.245Z,14.30
2022-09-22T08:54:38.653Z,14.30
2022-09-22T08:57:33.929Z,14.40
2022-09-22T09:00:20.570Z,14.70
2022-09-22T09:03:25.048Z,14.80
2022-09-22T09:06:42.731Z,14.80
2022-09-22T09:09:40.074Z,15.10
2022-09-22T09:12:34.560Z,15.30
2022-09-22T09:15:38.000Z,15.30
2022-09-22T09:18:34.585Z,15.40
2022-09-22T09:21:22.853Z,15.60
2022-09-22T09:27:30.074Z,16.00
2022-09-22T09:30:21.063Z,16.20
2022-09-22T09:33:29.471Z,16.30
2022-09-22T09:36:18.573Z,16.20
2022-09-22T09:39:14.649Z,16.50
2022-09-22T09:42:02.231Z,16.60
2022-09-22T09:44:53.430Z,16.80
2022-09-22T09:48:15.205Z,17.20
2022-09-22T09:51:05.506Z,17.30
2022-09-22T09:53:52.606Z,17.10
2022-09-22T09:57:01.640Z,17.20
2022-09-22T10:00:14.468Z,17.50
2022-09-22T10:03:03.691Z,17.70
2022-09-22T10:06:02.691Z,17.80
2022-09-22T10:08:51.432Z,18.00
2022-09-22T10:11:36.929Z,18.10
2022-09-22T10:14:24.698Z,18.10
2022-09-22T10:17:29.973Z,18.30
2022-09-22T10:20:23.016Z,18.20
2022-09-22T10:23:35.543Z,18.30
2022-09-22T10:26:28.622Z,18.60
2022-09-22T10:29:21.111Z,18.70
2022-09-22T10:32:15.566Z,18.70
2022-09-22T10:35:01.150Z,18.90
2022-09-22T10:37:48.452Z,19.00
2022-09-22T10:40:35.292Z,19.30
2022-09-22T10:43:35.656Z,19.40
2022-09-22T10:46:29.167Z,19.20
2022-09-22T10:49:40.219Z,19.50
2022-09-22T10:52:43.790Z,19.70
2022-09-22T10:55:41.646Z,19.80
2022-09-22T10:58:40.271Z,19.90
2022-09-22T11:02:28.352Z,20.00
2022-09-22T11:05:52.730Z,20.30
2022-09-22T11:09:22.595Z,20.00
2022-09-22T11:12:35.354Z,20.30
2022-09-22T11:15:58.897Z,20.60
2022-09-22T11:19:01.927Z,20.70
2022-09-22T11:22:02.572Z,20.90
2022-09-22T11:24:59.734Z,21.20
2022-09-22T11:27:53.466Z,21.80
2022-09-22T11:30:46.661Z,22.20
2022-09-22T11:34:06.533Z,22.50
2022-09-22T11:36:52.195Z,23.10
2022-09-22T11:40:23.811Z,23.30
2022-09-22T11:43:48.785Z,24.20
2022-09-22T11:46:58.180Z,25.10
2022-09-22T11:49:59.706Z,26.80
2022-09-22T11:53:08.623Z,29.20
2022-09-22T11:56:22.191Z,31.20
2022-09-22T11:59:29.904Z,32.80
2022-09-22T12:02:28.965Z,34.80
2022-09-22T12:05:30.148Z,35.60
2022-09-22T12:08:21.034Z,36.90
2022-09-22T12:11:10.316Z,39.10
2022-09-22T12:13:57.942Z,40.20
2022-09-22T12:16:48.518Z,40.40
2022-09-22T12:20:02.900Z,39.50
2022-09-22T12:23:20.839Z,38.50
2022-09-22T12:26:12.660Z,37.30
2022-09-22T12:28:59.694Z,35.20
2022-09-22T12:31:48.633Z,33.00
2022-09-22T12:34:39.342Z,31.30
2022-09-22T12:37:36.076Z,31.90
2022-09-22T12:40:35.631Z,33.10
2022-09-22T12:43:23.806Z,32.70
2022-09-22T12:46:24.796Z,31.90
2022-09-22T12:49:16.188Z,29.70
2022-09-22T12:52:02.218Z,28.00
2022-09-22T12:54:48.105Z,27.30
2022-09-22T12:57:46.946Z,27.40
2022-09-22T13:00:36.524Z,28.60
2022-09-22T13:03:24.795Z,28.60
2022-09-22T13:06:23.991Z,27.90
2022-09-22T13:09:20.115Z,26.30
2022-09-22T13:12:12.021Z,27.20
2022-09-22T13:15:06.948Z,25.90
2022-09-22T13:17:53.137Z,26.90
2022-09-22T13:20:38.484Z,28.20
2022-09-22T13:23:24.051Z,27.70
2022-09-22T13:26:13.928Z,27.90
2022-09-22T13:29:14.139Z,27.60
2022-09-22T13:32:18.623Z,27.10
2022-09-22T13:35:04.620Z,26.80
2022-09-22T13:37:50.074Z,25.90
2022-09-22T13:40:35.633Z,25.70
2022-09-22T13:43:28.919Z,25.70
2022-09-22T13:46:41.490Z,25.80
2022-09-22T13:49:38.911Z,25.40
2022-09-22T13:52:31.263Z,25.10
2022-09-22T13:55:37.499Z,24.70
2022-09-22T13:58:35.240Z,24.20
2022-09-22T14:01:23.043Z,24.00
2022-09-22T14:04:24.716Z,24.00
2022-09-22T14:07:11.588Z,24.10
2022-09-22T14:09:58.500Z,24.00
2022-09-22T14:12:43.975Z,24.00
2022-09-22T14:15:43.741Z,23.90
2022-09-22T14:18:30.774Z,24.30
2022-09-22T14:21:17.021Z,24.50
2022-09-22T14:24:02.491Z,25.00
2022-09-22T14:26:53.285Z,25.30
2022-09-22T14:29:39.756Z,25.50
2022-09-22T14:32:28.142Z,25.80
2022-09-22T14:35:36.106Z,26.90
2022-09-22T14:38:23.418Z,27.30
2022-09-22T14:41:26.755Z,27.70
2022-09-22T14:44:46.374Z,28.30
2022-09-22T14:47:39.034Z,27.40
2022-09-22T14:50:27.466Z,26.60
2022-09-22T14:53:41.691Z,27.00
2022-09-22T14:56:29.120Z,26.40
2022-09-22T14:59:36.364Z,24.80
2022-09-22T15:02:32.389Z,23.80
2022-09-22T15:05:30.719Z,22.90
2022-09-22T15:08:20.478Z,22.40
2022-09-22T15:11:05.670Z,22.10
2022-09-22T15:13:52.746Z,21.80
2022-09-22T15:16:41.097Z,21.60
2022-09-22T15:19:27.827Z,21.50
2022-09-22T15:22:15.001Z,22.30
2022-09-22T15:25:00.694Z,21.10
2022-09-22T15:27:46.234Z,21.00
2022-09-22T15:30:32.106Z,20.90
2022-09-22T15:33:18.805Z,20.80
2022-09-22T15:36:12.787Z,20.70
2022-09-22T15:39:21.606Z,20.60
2022-09-22T15:42:11.384Z,20.50
2022-09-22T15:44:57.072Z,20.50
2022-09-22T15:47:45.327Z,20.40
2022-09-22T15:50:30.798Z,20.40
2022-09-22T15:53:16.615Z,20.30
2022-09-22T15:56:04.984Z,20.90
2022-09-22T15:58:53.837Z,20.20
2022-09-22T16:01:39.250Z,20.20
2022-09-22T16:04:27.387Z,20.30
2022-09-22T16:07:14.953Z,20.00
2022-09-22T16:10:00.595Z,20.00
2022-09-22T16:12:47.509Z,19.90
2022-09-22T16:15:33.233Z,19.80
2022-09-22T16:18:18.893Z,20.20
2022-09-22T16:21:22.739Z,19.80
2022-09-22T16:24:10.593Z,19.70
2022-09-22T16:26:56.188Z,19.70
2022-09-22T16:29:43.342Z,19.60
2022-09-22T16:32:28.626Z,19.60
2022-09-22T16:35:14.463Z,19.50
2022-09-22T16:38:00.105Z,19.50
2022-09-22T16:40:59.832Z,19.40
2022-09-22T16:43:44.991Z,19.40
2022-09-22T16:46:32.215Z,19.20
2022-09-22T16:49:20.207Z,19.10
2022-09-22T16:52:05.800Z,19.00
2022-09-22T16:54:51.203Z,18.90
2022-09-22T16:57:36.746Z,18.90
2022-09-22T17:00:22.674Z,18.70
2022-09-22T17:03:08.657Z,18.70
2022-09-22T17:06:08.659Z,18.60
2022-09-22T17:08:56.982Z,18.50
2022-09-22T17:11:45.189Z,18.30
2022-09-22T17:14:32.205Z,18.20
2022-09-22T17:17:17.711Z,18.10
2022-09-22T17:20:04.147Z,18.00
2022-09-22T17:22:50.049Z,18.00
2022-09-22T17:25:35.243Z,18.60
2022-09-22T17:28:20.915Z,17.70
2022-09-22T17:31:07.588Z,18.70
2022-09-22T17:33:54.969Z,17.30
2022-09-22T17:36:40.854Z,17.10
2022-09-22T17:39:27.662Z,16.80
2022-09-22T17:42:15.343Z,16.60
2022-09-22T17:45:00.617Z,16.40
2022-09-22T17:48:04.464Z,16.00
2022-09-22T17:51:09.319Z,16.20
2022-09-22T17:54:25.114Z,16.10
2022-09-22T17:57:13.669Z,16.00
2022-09-22T17:59:59.680Z,15.80
2022-09-22T18:02:45.147Z,15.70
2022-09-22T18:05:32.145Z,15.60
2022-09-22T18:08:17.822Z,15.10
2022-09-22T18:11:03.845Z,15.30
2022-09-22T18:13:50.607Z,15.20
2022-09-22T18:16:38.559Z,15.00
2022-09-22T18:19:28.808Z,14.90
2022-09-22T18:22:21.104Z,14.80
2022-09-22T18:25:08.884Z,14.90
2022-09-22T18:27:56.328Z,14.80
2022-09-22T18:30:42.000Z,14.70
2022-09-22T18:33:28.027Z,14.70
2022-09-22T18:36:13.591Z,15.60
2022-09-22T18:38:59.154Z,14.40
2022-09-22T18:41:44.812Z,14.30
2022-09-22T18:44:35.046Z,14.30
2022-09-22T18:47:22.963Z,14.20
2022-09-22T18:50:09.849Z,14.50
2022-09-22T18:52:56.704Z,14.20
2022-09-22T18:55:42.443Z,14.20
2022-09-22T18:58:27.636Z,14.60
2022-09-22T19:01:13.762Z,14.00
2022-09-22T19:03:59.813Z,14.00
2022-09-22T19:07:05.414Z,13.90
2022-09-22T19:09:52.520Z,13.80
2022-09-22T19:12:39.652Z,15.60
2022-09-22T19:15:25.700Z,13.70
2022-09-22T19:18:11.769Z,14.80
2022-09-22T19:20:58.421Z,13.50
2022-09-22T19:23:43.900Z,13.30
2022-09-22T19:26:29.759Z,13.30
2022-09-22T19:29:15.144Z,13.30
2022-09-22T19:32:02.133Z,13.30
2022-09-22T19:34:51.422Z,13.20
2022-09-22T19:37:36.717Z,13.20
2022-09-22T19:40:24.566Z,13.20
2022-09-22T19:43:10.309Z,12.90
2022-09-22T19:45:55.765Z,13.70
2022-09-22T19:48:41.067Z,12.70
2022-09-22T19:51:26.991Z,12.80
2022-09-22T19:54:12.534Z,12.60
2022-09-22T19:56:59.080Z,12.60
2022-09-22T19:59:44.911Z,12.50
2022-09-22T20:02:30.363Z,12.20
2022-09-22T20:05:21.167Z,13.40
2022-09-22T20:08:15.735Z,12.20
2022-09-22T20:11:25.183Z,12.30
2022-09-22T20:14:20.238Z,14.00
2022-09-22T20:17:08.155Z,12.40
2022-09-22T20:19:54.179Z,12.30
2022-09-22T20:22:42.040Z,12.40
2022-09-22T20:25:32.859Z,12.50
2022-09-22T20:28:18.626Z,12.50
2022-09-22T20:31:03.920Z,12.70
2022-09-22T20:33:49.486Z,12.40
2022-09-22T20:36:37.268Z,12.40
2022-09-22T20:39:22.685Z,12.30
2022-09-22T20:42:08.200Z,12.30
2022-09-22T20:44:54.946Z,12.20
2022-09-22T20:47:40.420Z,12.20
2022-09-22T20:50:25.703Z,12.20
2022-09-22T20:53:12.721Z,12.10
2022-09-22T20:56:02.008Z,12.10
2022-09-22T20:58:47.454Z,12.10
2022-09-22T21:01:34.121Z,13.00
2022-09-22T21:04:19.811Z,12.90
2022-09-22T21:07:05.445Z,12.00
2022-09-22T21:10:09.702Z,11.90
2022-09-22T21:12:56.017Z,11.90
2022-09-22T21:15:41.655Z,11.80
2022-09-22T21:18:27.412Z,11.80
2022-09-22T21:21:15.257Z,11.80
2022-09-22T21:24:01.896Z,11.80
2022-09-22T21:26:47.482Z,11.80
2022-09-22T21:29:32.731Z,11.80
2022-09-22T21:32:19.917Z,12.10
2022-09-22T21:35:06.047Z,11.60
2022-09-22T21:37:56.038Z,11.50
2022-09-22T21:40:41.376Z,11.60
2022-09-22T21:43:29.020Z,11.50
2022-09-22T21:46:17.604Z,11.60
2022-09-22T21:49:04.414Z,11.60
2022-09-22T21:51:49.577Z,11.50
2022-09-22T21:54:34.829Z,11.50
2022-09-22T21:57:20.786Z,11.40
2022-09-22T22:00:07.264Z,11.40
2022-09-22T22:03:15.845Z,11.30
2022-09-22T22:06:01.438Z,11.30
2022-09-22T22:08:54.239Z,11.20
2022-09-22T22:11:53.790Z,11.30
2022-09-22T22:14:39.617Z,11.30
2022-09-22T22:17:25.570Z,11.30
2022-09-22T22:20:11.102Z,11.20
2022-09-22T22:22:57.155Z,11.20
2022-09-22T22:25:43.002Z,11.10
2022-09-22T22:28:29.794Z,11.20
2022-09-22T22:31:20.756Z,11.10
2022-09-22T22:34:08.256Z,11.20
2022-09-22T22:37:00.379Z,11.20
2022-09-22T22:39:45.883Z,11.20
2022-09-22T22:42:31.370Z,11.10
2022-09-22T22:45:16.650Z,11.10
2022-09-22T22:48:02.344Z,12.20
2022-09-22T22:50:47.851Z,11.10
2022-09-22T22:53:35.838Z,11.10
2022-09-22T22:56:24.942Z,11.20
2022-09-22T22:59:11.188Z,11.20
2022-09-22T23:01:56.632Z,11.20
2022-09-22T23:04:42.080Z,11.20
2022-09-22T23:07:27.627Z,11.10
2022-09-22T23:10:12.988Z,11.10
2022-09-22T23:13:01.066Z,11.20
2022-09-22T23:15:46.658Z,11.20
2022-09-22T23:18:35.188Z,11.20
2022-09-22T23:21:21.807Z,11.20
2022-09-22T23:24:08.286Z,11.10
2022-09-22T23:26:54.339Z,11.10
2022-09-22T23:29:39.612Z,11.00
2022-09-22T23:32:25.321Z,11.20
2022-09-22T23:35:11.267Z,11.00
2022-09-22T23:37:57.873Z,11.00
2022-09-22T23:40:43.476Z,10.90
2022-09-22T23:43:30.703Z,10.90
2022-09-22T23:46:15.850Z,10.90
2022-09-22T23:49:02.192Z,10.80
2022-09-22T23:51:47.323Z,10.70
2022-09-22T23:54:33.626Z,10.70
2022-09-22T23:57:18.965Z,10.70
